sensor_id;sensor_type;location;lat;lon;timestamp;P1;durP1;ratioP1;P2;durP2;ratioP2
22230;SDS011;11284;48.086;-1.652;2023-03-14T00:00:14;6.13;;;1.00;;
22230;SDS011;11284;48.086;-1.652;2023-03-14T00:02:40;6.38;;;1.33;;
22230;SDS011;11284;48.086;-1.652;2023-03-14T00:05:07;4.53;;;1.02;;
22230;SDS011;11284;48.086;-1.652;2023-03-14T00:07:36;4.70;;;0.98;;
22230;SDS011;11284;48.086;-1.652;2023-03-14T00:10:03;5.28;;;1.00;;
22230;SDS011;11284;48.086;-1.652;2023-03-14T00:12:30;4.55;;;1.13;;
22230;SDS011;11284;48.086;-1.652;2023-03-14T00:14:56;5.82;;;0.85;;
22230;SDS011;11284;48.086;-1.652;2023-03-14T00:17:22;5.47;;;0.90;;
22230;SDS011;11284;48.086;-1.652;2023-03-14T00:19:48;6.28;;;1.00;;
22230;SDS011;11284;48.086;-1.652;2023-03-14T00:22:17;5.80;;;1.00;;
22230;SDS011;11284;48.086;-1.652;2023-03-14T00:24:43;5.72;;;1.20;;
22230;SDS011;11284;48.086;-1.652;2023-03-14T00:27:09;5.90;;;1.13;;
22230;SDS011;11284;48.086;-1.652;2023-03-14T00:29:35;7.30;;;1.48;;
22230;SDS011;11284;48.086;-1.652;2023-03-14T00:32:01;4.70;;;1.00;;
22230;SDS011;11284;48.086;-1.652;2023-03-14T00:34:31;4.35;;;1.00;;
22230;SDS011;11284;48.086;-1.652;2023-03-14T00:36:57;8.30;;;1.20;;
22230;SDS011;11284;48.086;-1.652;2023-03-14T00:39:23;5.53;;;1.20;;
22230;SDS011;11284;48.086;-1.652;2023-03-14T00:41:49;6.60;;;1.10;;
22230;SDS011;11284;48.086;-1.652;2023-03-14T00:44:15;5.07;;;0.88;;
22230;SDS011;11284;48.086;-1.652;2023-03-14T00:46:41;4.75;;;0.85;;
22230;SDS011;11284;48.086;-1.652;2023-03-14T00:49:07;4.97;;;0.90;;
22230;SDS011;11284;48.086;-1.652;2023-03-14T00:51:33;4.90;;;1.05;;
22230;SDS011;11284;48.086;-1.652;2023-03-14T00:54:00;4.90;;;1.05;;
22230;SDS011;11284;48.086;-1.652;2023-03-14T00:56:26;4.32;;;0.98;;
22230;SDS011;11284;48.086;-1.652;2023-03-14T00:58:55;4.68;;;0.77;;
22230;SDS011;11284;48.086;-1.652;2023-03-14T01:01:21;4.75;;;0.60;;
22230;SDS011;11284;48.086;-1.652;2023-03-14T01:03:50;4.10;;;0.50;;
22230;SDS011;11284;48.086;-1.652;2023-03-14T01:06:17;3.05;;;0.75;;
22230;SDS011;11284;48.086;-1.652;2023-03-14T01:08:43;2.72;;;0.50;;
22230;SDS011;11284;48.086;-1.652;2023-03-14T01:11:12;3.75;;;0.50;;
22230;SDS011;11284;48.086;-1.652;2023-03-14T01:13:38;3.65;;;0.52;;
22230;SDS011;11284;48.086;-1.652;2023-03-14T01:16:05;2.88;;;0.63;;
22230;SDS011;11284;48.086;-1.652;2023-03-14T01:18:31;6.55;;;0.80;;
22230;SDS011;11284;48.086;-1.652;2023-03-14T01:20:58;6.53;;;1.30;;
22230;SDS011;11284;48.086;-1.652;2023-03-14T01:23:24;5.03;;;1.00;;
22230;SDS011;11284;48.086;-1.652;2023-03-14T01:25:50;6.65;;;1.25;;
22230;SDS011;11284;48.086;-1.652;2023-03-14T01:28:16;5.28;;;0.90;;
22230;SDS011;11284;48.086;-1.652;2023-03-14T01:30:42;12.32;;;1.88;;
22230;SDS011;11284;48.086;-1.652;2023-03-14T01:33:08;8.57;;;1.83;;
22230;SDS011;11284;48.086;-1.652;2023-03-14T01:35:34;9.05;;;1.92;;
22230;SDS011;11284;48.086;-1.652;2023-03-14T01:38:00;8.93;;;1.60;;
22230;SDS011;11284;48.086;-1.652;2023-03-14T01:40:26;8.55;;;1.55;;
22230;SDS011;11284;48.086;-1.652;2023-03-14T01:43:13;13.27;;;1.92;;
22230;SDS011;11284;48.086;-1.652;2023-03-14T01:48:23;8.70;;;1.80;;
22230;SDS011;11284;48.086;-1.652;2023-03-14T01:50:49;10.77;;;2.20;;
22230;SDS011;11284;48.086;-1.652;2023-03-14T01:53:15;8.18;;;1.60;;
22230;SDS011;11284;48.086;-1.652;2023-03-14T01:55:42;10.57;;;2.55;;
22230;SDS011;11284;48.086;-1.652;2023-03-14T01:58:08;10.20;;;2.05;;
22230;SDS011;11284;48.086;-1.652;2023-03-14T02:00:34;11.70;;;2.08;;
22230;SDS011;11284;48.086;-1.652;2023-03-14T02:03:01;8.77;;;1.95;;
22230;SDS011;11284;48.086;-1.652;2023-03-14T02:05:30;14.30;;;2.80;;
22230;SDS011;11284;48.086;-1.652;2023-03-14T02:07:58;9.75;;;2.00;;
22230;SDS011;11284;48.086;-1.652;2023-03-14T02:10:25;8.57;;;1.70;;
22230;SDS011;11284;48.086;-1.652;2023-03-14T02:12:53;10.82;;;1.63;;
22230;SDS011;11284;48.086;-1.652;2023-03-14T02:15:20;14.52;;;2.45;;
22230;SDS011;11284;48.086;-1.652;2023-03-14T02:17:46;8.55;;;2.22;;
22230;SDS011;11284;48.086;-1.652;2023-03-14T02:20:25;11.15;;;2.20;;
22230;SDS011;11284;48.086;-1.652;2023-03-14T02:22:53;7.70;;;2.00;;
22230;SDS011;11284;48.086;-1.652;2023-03-14T02:25:35;8.82;;;2.15;;
22230;SDS011;11284;48.086;-1.652;2023-03-14T02:28:05;10.00;;;1.67;;
22230;SDS011;11284;48.086;-1.652;2023-03-14T02:30:31;13.38;;;2.50;;
22230;SDS011;11284;48.086;-1.652;2023-03-14T02:32:59;12.75;;;2.38;;
22230;SDS011;11284;48.086;-1.652;2023-03-14T02:35:27;11.23;;;2.25;;
22230;SDS011;11284;48.086;-1.652;2023-03-14T02:40:52;12.13;;;1.92;;
22230;SDS011;11284;48.086;-1.652;2023-03-14T02:43:18;8.43;;;2.03;;
22230;SDS011;11284;48.086;-1.652;2023-03-14T02:45:45;11.40;;;2.20;;
22230;SDS011;11284;48.086;-1.652;2023-03-14T02:48:54;12.27;;;2.30;;
22230;SDS011;11284;48.086;-1.652;2023-03-14T02:51:00;11.07;;;1.92;;
22230;SDS011;11284;48.086;-1.652;2023-03-14T02:53:28;9.82;;;1.83;;
22230;SDS011;11284;48.086;-1.652;2023-03-14T02:55:54;7.95;;;1.90;;
22230;SDS011;11284;48.086;-1.652;2023-03-14T02:58:20;6.10;;;1.60;;
22230;SDS011;11284;48.086;-1.652;2023-03-14T03:00:48;8.95;;;1.90;;
22230;SDS011;11284;48.086;-1.652;2023-03-14T03:03:14;9.23;;;2.00;;
22230;SDS011;11284;48.086;-1.652;2023-03-14T03:05:40;10.07;;;1.58;;
22230;SDS011;11284;48.086;-1.652;2023-03-14T03:08:08;8.10;;;1.63;;
22230;SDS011;11284;48.086;-1.652;2023-03-14T03:10:34;7.88;;;1.52;;
22230;SDS011;11284;48.086;-1.652;2023-03-14T03:13:00;7.90;;;1.73;;
22230;SDS011;11284;48.086;-1.652;2023-03-14T03:15:26;7.75;;;1.60;;
22230;SDS011;11284;48.086;-1.652;2023-03-14T03:17:52;8.63;;;1.85;;
22230;SDS011;11284;48.086;-1.652;2023-03-14T03:20:18;8.70;;;1.90;;
22230;SDS011;11284;48.086;-1.652;2023-03-14T03:22:44;8.45;;;1.70;;
22230;SDS011;11284;48.086;-1.652;2023-03-14T03:25:10;8.90;;;1.77;;
22230;SDS011;11284;48.086;-1.652;2023-03-14T03:27:36;9.40;;;2.13;;
22230;SDS011;11284;48.086;-1.652;2023-03-14T03:30:03;12.98;;;2.20;;
22230;SDS011;11284;48.086;-1.652;2023-03-14T03:32:30;12.57;;;2.75;;
22230;SDS011;11284;48.086;-1.652;2023-03-14T03:34:56;8.80;;;2.45;;
22230;SDS011;11284;48.086;-1.652;2023-03-14T03:37:22;11.52;;;2.25;;
22230;SDS011;11284;48.086;-1.652;2023-03-14T03:39:50;11.88;;;2.17;;
22230;SDS011;11284;48.086;-1.652;2023-03-14T03:42:16;10.70;;;2.15;;
22230;SDS011;11284;48.086;-1.652;2023-03-14T03:44:42;13.20;;;2.30;;
22230;SDS011;11284;48.086;-1.652;2023-03-14T03:47:08;14.43;;;2.58;;
22230;SDS011;11284;48.086;-1.652;2023-03-14T03:49:34;9.63;;;2.17;;
22230;SDS011;11284;48.086;-1.652;2023-03-14T03:52:00;11.70;;;2.40;;
22230;SDS011;11284;48.086;-1.652;2023-03-14T03:54:26;10.80;;;2.65;;
22230;SDS011;11284;48.086;-1.652;2023-03-14T03:56:53;12.98;;;2.58;;
22230;SDS011;11284;48.086;-1.652;2023-03-14T03:59:20;11.63;;;2.60;;
22230;SDS011;11284;48.086;-1.652;2023-03-14T04:01:46;17.30;;;3.28;;
22230;SDS011;11284;48.086;-1.652;2023-03-14T04:04:12;14.52;;;2.92;;
22230;SDS011;11284;48.086;-1.652;2023-03-14T04:06:38;9.82;;;2.25;;
22230;SDS011;11284;48.086;-1.652;2023-03-14T04:09:04;11.02;;;2.20;;
22230;SDS011;11284;48.086;-1.652;2023-03-14T04:11:30;14.27;;;2.75;;
22230;SDS011;11284;48.086;-1.652;2023-03-14T04:13:56;12.43;;;2.60;;
22230;SDS011;11284;48.086;-1.652;2023-03-14T04:16:23;12.82;;;2.28;;
22230;SDS011;11284;48.086;-1.652;2023-03-14T04:18:49;11.25;;;2.35;;
22230;SDS011;11284;48.086;-1.652;2023-03-14T04:21:15;12.88;;;2.38;;
22230;SDS011;11284;48.086;-1.652;2023-03-14T04:23:42;12.95;;;2.22;;
22230;SDS011;11284;48.086;-1.652;2023-03-14T04:26:08;9.45;;;2.10;;
22230;SDS011;11284;48.086;-1.652;2023-03-14T04:28:34;11.13;;;2.08;;
22230;SDS011;11284;48.086;-1.652;2023-03-14T04:31:10;12.15;;;2.10;;
22230;SDS011;11284;48.086;-1.652;2023-03-14T04:33:36;8.48;;;2.08;;
22230;SDS011;11284;48.086;-1.652;2023-03-14T04:36:03;10.20;;;2.35;;
22230;SDS011;11284;48.086;-1.652;2023-03-14T04:38:29;13.23;;;2.28;;
22230;SDS011;11284;48.086;-1.652;2023-03-14T04:40:55;10.15;;;1.80;;
22230;SDS011;11284;48.086;-1.652;2023-03-14T04:43:21;9.85;;;1.92;;
22230;SDS011;11284;48.086;-1.652;2023-03-14T04:45:47;8.77;;;2.17;;
22230;SDS011;11284;48.086;-1.652;2023-03-14T04:48:13;10.20;;;2.20;;
22230;SDS011;11284;48.086;-1.652;2023-03-14T04:50:39;12.18;;;2.22;;
22230;SDS011;11284;48.086;-1.652;2023-03-14T04:53:06;12.23;;;2.42;;
22230;SDS011;11284;48.086;-1.652;2023-03-14T04:55:32;13.10;;;2.22;;
22230;SDS011;11284;48.086;-1.652;2023-03-14T04:57:59;14.85;;;2.78;;
22230;SDS011;11284;48.086;-1.652;2023-03-14T05:00:25;9.32;;;2.05;;
22230;SDS011;11284;48.086;-1.652;2023-03-14T05:02:51;11.00;;;2.25;;
22230;SDS011;11284;48.086;-1.652;2023-03-14T05:05:17;12.10;;;2.30;;
22230;SDS011;11284;48.086;-1.652;2023-03-14T05:07:43;12.30;;;2.70;;
22230;SDS011;11284;48.086;-1.652;2023-03-14T05:10:09;9.57;;;2.20;;
22230;SDS011;11284;48.086;-1.652;2023-03-14T05:12:35;11.30;;;2.17;;
22230;SDS011;11284;48.086;-1.652;2023-03-14T05:15:01;14.40;;;2.72;;
22230;SDS011;11284;48.086;-1.652;2023-03-14T05:17:29;12.27;;;2.70;;
22230;SDS011;11284;48.086;-1.652;2023-03-14T05:19:55;12.45;;;2.22;;
22230;SDS011;11284;48.086;-1.652;2023-03-14T05:22:21;12.88;;;2.55;;
22230;SDS011;11284;48.086;-1.652;2023-03-14T05:24:47;11.93;;;2.38;;
22230;SDS011;11284;48.086;-1.652;2023-03-14T05:27:13;12.52;;;2.70;;
22230;SDS011;11284;48.086;-1.652;2023-03-14T05:29:39;14.30;;;3.10;;
22230;SDS011;11284;48.086;-1.652;2023-03-14T05:32:05;14.80;;;2.60;;
22230;SDS011;11284;48.086;-1.652;2023-03-14T05:34:31;16.17;;;2.58;;
22230;SDS011;11284;48.086;-1.652;2023-03-14T05:36:57;14.15;;;2.72;;
22230;SDS011;11284;48.086;-1.652;2023-03-14T05:39:23;14.10;;;2.83;;
22230;SDS011;11284;48.086;-1.652;2023-03-14T05:41:49;14.95;;;2.88;;
22230;SDS011;11284;48.086;-1.652;2023-03-14T05:44:16;16.77;;;3.05;;
22230;SDS011;11284;48.086;-1.652;2023-03-14T05:46:42;12.38;;;2.58;;
22230;SDS011;11284;48.086;-1.652;2023-03-14T05:49:08;15.40;;;2.53;;
22230;SDS011;11284;48.086;-1.652;2023-03-14T05:51:34;13.63;;;2.92;;
22230;SDS011;11284;48.086;-1.652;2023-03-14T05:54:00;8.40;;;2.20;;
22230;SDS011;11284;48.086;-1.652;2023-03-14T05:56:25;12.65;;;2.40;;
22230;SDS011;11284;48.086;-1.652;2023-03-14T05:58:51;12.45;;;2.65;;
22230;SDS011;11284;48.086;-1.652;2023-03-14T06:01:17;9.20;;;2.58;;
22230;SDS011;11284;48.086;-1.652;2023-03-14T06:03:43;10.32;;;2.78;;
22230;SDS011;11284;48.086;-1.652;2023-03-14T06:06:09;12.15;;;3.00;;
22230;SDS011;11284;48.086;-1.652;2023-03-14T06:08:35;11.50;;;2.80;;
22230;SDS011;11284;48.086;-1.652;2023-03-14T06:11:02;10.35;;;2.35;;
22230;SDS011;11284;48.086;-1.652;2023-03-14T06:13:29;11.57;;;2.20;;
22230;SDS011;11284;48.086;-1.652;2023-03-14T06:15:55;11.35;;;2.42;;
22230;SDS011;11284;48.086;-1.652;2023-03-14T06:18:21;15.10;;;3.45;;
22230;SDS011;11284;48.086;-1.652;2023-03-14T06:20:47;15.60;;;2.88;;
22230;SDS011;11284;48.086;-1.652;2023-03-14T06:23:13;10.55;;;2.85;;
22230;SDS011;11284;48.086;-1.652;2023-03-14T06:25:39;14.65;;;3.00;;
22230;SDS011;11284;48.086;-1.652;2023-03-14T06:28:05;14.77;;;2.20;;
22230;SDS011;11284;48.086;-1.652;2023-03-14T06:30:31;11.35;;;2.67;;
22230;SDS011;11284;48.086;-1.652;2023-03-14T06:32:57;12.82;;;2.60;;
22230;SDS011;11284;48.086;-1.652;2023-03-14T06:35:23;13.75;;;2.03;;
22230;SDS011;11284;48.086;-1.652;2023-03-14T06:37:49;11.70;;;2.33;;
22230;SDS011;11284;48.086;-1.652;2023-03-14T06:40:15;12.55;;;2.45;;
22230;SDS011;11284;48.086;-1.652;2023-03-14T06:42:45;10.95;;;1.75;;
22230;SDS011;11284;48.086;-1.652;2023-03-14T06:45:12;12.05;;;2.33;;
22230;SDS011;11284;48.086;-1.652;2023-03-14T06:47:38;10.40;;;2.00;;
22230;SDS011;11284;48.086;-1.652;2023-03-14T06:50:05;11.13;;;2.55;;
22230;SDS011;11284;48.086;-1.652;2023-03-14T06:52:31;9.25;;;2.00;;
22230;SDS011;11284;48.086;-1.652;2023-03-14T06:54:57;13.52;;;1.88;;
22230;SDS011;11284;48.086;-1.652;2023-03-14T06:57:23;11.70;;;2.10;;
22230;SDS011;11284;48.086;-1.652;2023-03-14T06:59:49;12.93;;;2.13;;
22230;SDS011;11284;48.086;-1.652;2023-03-14T07:02:15;12.82;;;2.80;;
22230;SDS011;11284;48.086;-1.652;2023-03-14T07:04:41;11.95;;;2.75;;
22230;SDS011;11284;48.086;-1.652;2023-03-14T07:07:07;13.48;;;2.50;;
22230;SDS011;11284;48.086;-1.652;2023-03-14T07:09:33;9.18;;;1.90;;
22230;SDS011;11284;48.086;-1.652;2023-03-14T07:11:59;12.82;;;2.50;;
22230;SDS011;11284;48.086;-1.652;2023-03-14T07:14:25;8.10;;;1.88;;
22230;SDS011;11284;48.086;-1.652;2023-03-14T07:16:51;9.60;;;2.33;;
22230;SDS011;11284;48.086;-1.652;2023-03-14T07:19:17;10.85;;;2.22;;
22230;SDS011;11284;48.086;-1.652;2023-03-14T07:21:43;8.65;;;1.90;;
22230;SDS011;11284;48.086;-1.652;2023-03-14T07:24:09;7.50;;;2.42;;
22230;SDS011;11284;48.086;-1.652;2023-03-14T07:26:35;10.07;;;2.13;;
22230;SDS011;11284;48.086;-1.652;2023-03-14T07:29:01;12.73;;;2.10;;
22230;SDS011;11284;48.086;-1.652;2023-03-14T07:31:30;9.60;;;2.05;;
22230;SDS011;11284;48.086;-1.652;2023-03-14T07:33:56;11.65;;;2.40;;
22230;SDS011;11284;48.086;-1.652;2023-03-14T07:36:22;9.02;;;2.03;;
22230;SDS011;11284;48.086;-1.652;2023-03-14T07:38:48;10.98;;;2.10;;
22230;SDS011;11284;48.086;-1.652;2023-03-14T07:41:14;21.98;;;12.18;;
22230;SDS011;11284;48.086;-1.652;2023-03-14T07:43:40;14.10;;;4.38;;
22230;SDS011;11284;48.086;-1.652;2023-03-14T07:46:06;9.43;;;2.75;;
22230;SDS011;11284;48.086;-1.652;2023-03-14T07:48:32;12.52;;;4.63;;
22230;SDS011;11284;48.086;-1.652;2023-03-14T07:50:58;15.23;;;3.60;;
22230;SDS011;11284;48.086;-1.652;2023-03-14T07:53:24;14.55;;;4.43;;
22230;SDS011;11284;48.086;-1.652;2023-03-14T07:55:51;11.65;;;1.83;;
22230;SDS011;11284;48.086;-1.652;2023-03-14T07:58:18;10.82;;;2.58;;
22230;SDS011;11284;48.086;-1.652;2023-03-14T08:00:44;12.40;;;2.38;;
22230;SDS011;11284;48.086;-1.652;2023-03-14T08:03:10;12.40;;;3.08;;
22230;SDS011;11284;48.086;-1.652;2023-03-14T08:05:36;11.38;;;2.80;;
22230;SDS011;11284;48.086;-1.652;2023-03-14T08:08:03;12.98;;;3.97;;
22230;SDS011;11284;48.086;-1.652;2023-03-14T08:10:29;12.60;;;4.57;;
22230;SDS011;11284;48.086;-1.652;2023-03-14T08:12:56;10.57;;;2.17;;
22230;SDS011;11284;48.086;-1.652;2023-03-14T08:15:22;13.90;;;3.20;;
22230;SDS011;11284;48.086;-1.652;2023-03-14T08:17:49;9.75;;;2.75;;
22230;SDS011;11284;48.086;-1.652;2023-03-14T08:20:19;14.85;;;3.53;;
22230;SDS011;11284;48.086;-1.652;2023-03-14T08:22:45;10.73;;;1.80;;
22230;SDS011;11284;48.086;-1.652;2023-03-14T08:25:12;11.45;;;3.05;;
22230;SDS011;11284;48.086;-1.652;2023-03-14T08:27:38;11.32;;;2.30;;
22230;SDS011;11284;48.086;-1.652;2023-03-14T08:30:04;13.07;;;2.15;;
22230;SDS011;11284;48.086;-1.652;2023-03-14T08:32:31;13.50;;;2.80;;
22230;SDS011;11284;48.086;-1.652;2023-03-14T08:34:57;10.13;;;2.20;;
22230;SDS011;11284;48.086;-1.652;2023-03-14T08:37:23;10.80;;;2.20;;
22230;SDS011;11284;48.086;-1.652;2023-03-14T08:39:50;12.65;;;2.95;;
22230;SDS011;11284;48.086;-1.652;2023-03-14T08:42:16;11.48;;;2.00;;
22230;SDS011;11284;48.086;-1.652;2023-03-14T08:44:42;11.52;;;2.10;;
22230;SDS011;11284;48.086;-1.652;2023-03-14T08:47:08;9.23;;;2.20;;
22230;SDS011;11284;48.086;-1.652;2023-03-14T08:49:34;11.23;;;2.67;;
22230;SDS011;11284;48.086;-1.652;2023-03-14T08:52:01;12.25;;;3.83;;
22230;SDS011;11284;48.086;-1.652;2023-03-14T08:54:28;11.00;;;1.83;;
22230;SDS011;11284;48.086;-1.652;2023-03-14T08:56:54;14.15;;;2.25;;
22230;SDS011;11284;48.086;-1.652;2023-03-14T08:59:20;12.50;;;2.13;;
22230;SDS011;11284;48.086;-1.652;2023-03-14T09:01:46;8.32;;;1.83;;
22230;SDS011;11284;48.086;-1.652;2023-03-14T09:04:12;11.90;;;2.10;;
22230;SDS011;11284;48.086;-1.652;2023-03-14T09:06:38;7.53;;;1.80;;
22230;SDS011;11284;48.086;-1.652;2023-03-14T09:09:04;9.68;;;2.15;;
22230;SDS011;11284;48.086;-1.652;2023-03-14T09:11:31;11.98;;;2.22;;
22230;SDS011;11284;48.086;-1.652;2023-03-14T09:13:57;10.30;;;2.47;;
22230;SDS011;11284;48.086;-1.652;2023-03-14T09:16:23;12.43;;;4.75;;
22230;SDS011;11284;48.086;-1.652;2023-03-14T09:18:49;14.93;;;2.92;;
22230;SDS011;11284;48.086;-1.652;2023-03-14T09:21:18;13.13;;;2.55;;
22230;SDS011;11284;48.086;-1.652;2023-03-14T09:23:44;12.18;;;2.90;;
22230;SDS011;11284;48.086;-1.652;2023-03-14T09:26:10;11.13;;;2.80;;
22230;SDS011;11284;48.086;-1.652;2023-03-14T09:28:36;11.45;;;2.65;;
22230;SDS011;11284;48.086;-1.652;2023-03-14T09:31:09;11.65;;;2.40;;
22230;SDS011;11284;48.086;-1.652;2023-03-14T09:33:36;9.63;;;2.28;;
22230;SDS011;11284;48.086;-1.652;2023-03-14T09:36:02;9.15;;;2.20;;
22230;SDS011;11284;48.086;-1.652;2023-03-14T09:38:29;10.55;;;2.00;;
22230;SDS011;11284;48.086;-1.652;2023-03-14T09:40:55;10.68;;;2.85;;
22230;SDS011;11284;48.086;-1.652;2023-03-14T09:43:22;7.28;;;1.90;;
22230;SDS011;11284;48.086;-1.652;2023-03-14T09:45:50;9.85;;;1.90;;
22230;SDS011;11284;48.086;-1.652;2023-03-14T09:48:19;6.10;;;1.45;;
22230;SDS011;11284;48.086;-1.652;2023-03-14T09:50:47;7.68;;;1.95;;
22230;SDS011;11284;48.086;-1.652;2023-03-14T09:53:16;10.98;;;2.10;;
22230;SDS011;11284;48.086;-1.652;2023-03-14T09:55:43;7.68;;;1.85;;
22230;SDS011;11284;48.086;-1.652;2023-03-14T09:58:16;6.97;;;1.40;;
22230;SDS011;11284;48.086;-1.652;2023-03-14T10:00:42;8.50;;;1.95;;
22230;SDS011;11284;48.086;-1.652;2023-03-14T10:05:34;8.27;;;1.80;;
22230;SDS011;11284;48.086;-1.652;2023-03-14T10:08:00;9.68;;;2.22;;
22230;SDS011;11284;48.086;-1.652;2023-03-14T10:10:26;9.45;;;1.55;;
22230;SDS011;11284;48.086;-1.652;2023-03-14T10:12:59;12.80;;;4.82;;
22230;SDS011;11284;48.086;-1.652;2023-03-14T10:15:27;11.52;;;2.88;;
22230;SDS011;11284;48.086;-1.652;2023-03-14T10:17:55;12.80;;;3.65;;
22230;SDS011;11284;48.086;-1.652;2023-03-14T10:22:57;11.38;;;1.80;;
22230;SDS011;11284;48.086;-1.652;2023-03-14T10:25:27;8.05;;;2.15;;
22230;SDS011;11284;48.086;-1.652;2023-03-14T10:27:54;10.13;;;2.78;;
22230;SDS011;11284;48.086;-1.652;2023-03-14T10:30:30;11.35;;;5.28;;
22230;SDS011;11284;48.086;-1.652;2023-03-14T10:33:03;8.38;;;2.00;;
22230;SDS011;11284;48.086;-1.652;2023-03-14T10:35:33;9.05;;;2.55;;
22230;SDS011;11284;48.086;-1.652;2023-03-14T10:38:00;9.75;;;3.60;;
22230;SDS011;11284;48.086;-1.652;2023-03-14T10:40:39;7.15;;;2.42;;
22230;SDS011;11284;48.086;-1.652;2023-03-14T10:43:06;7.07;;;1.65;;
22230;SDS011;11284;48.086;-1.652;2023-03-14T10:48:05;8.05;;;2.00;;
22230;SDS011;11284;48.086;-1.652;2023-03-14T10:50:32;9.90;;;2.05;;
22230;SDS011;11284;48.086;-1.652;2023-03-14T10:53:00;8.05;;;2.83;;
22230;SDS011;11284;48.086;-1.652;2023-03-14T10:55:38;7.05;;;1.42;;
22230;SDS011;11284;48.086;-1.652;2023-03-14T10:58:05;7.90;;;1.60;;
22230;SDS011;11284;48.086;-1.652;2023-03-14T11:00:31;6.88;;;1.60;;
22230;SDS011;11284;48.086;-1.652;2023-03-14T11:03:08;9.77;;;2.15;;
22230;SDS011;11284;48.086;-1.652;2023-03-14T11:08:49;7.93;;;1.75;;
22230;SDS011;11284;48.086;-1.652;2023-03-14T11:11:35;8.52;;;1.88;;
22230;SDS011;11284;48.086;-1.652;2023-03-14T11:35:07;9.90;;;2.15;;
22230;SDS011;11284;48.086;-1.652;2023-03-14T11:37:42;8.80;;;2.00;;
22230;SDS011;11284;48.086;-1.652;2023-03-14T11:42:37;8.50;;;1.70;;
22230;SDS011;11284;48.086;-1.652;2023-03-14T11:45:04;6.82;;;1.95;;
22230;SDS011;11284;48.086;-1.652;2023-03-14T11:47:40;7.60;;;1.70;;
22230;SDS011;11284;48.086;-1.652;2023-03-14T11:50:18;9.00;;;1.70;;
22230;SDS011;11284;48.086;-1.652;2023-03-14T11:55:24;10.02;;;4.60;;
22230;SDS011;11284;48.086;-1.652;2023-03-14T11:57:51;11.45;;;4.80;;
22230;SDS011;11284;48.086;-1.652;2023-03-14T12:00:22;10.95;;;3.72;;
22230;SDS011;11284;48.086;-1.652;2023-03-14T12:03:00;8.88;;;2.60;;
22230;SDS011;11284;48.086;-1.652;2023-03-14T12:08:04;6.65;;;2.33;;
22230;SDS011;11284;48.086;-1.652;2023-03-14T12:10:46;7.50;;;1.83;;
22230;SDS011;11284;48.086;-1.652;2023-03-14T12:13:14;7.90;;;2.38;;
22230;SDS011;11284;48.086;-1.652;2023-03-14T12:15:42;7.68;;;2.60;;
22230;SDS011;11284;48.086;-1.652;2023-03-14T12:18:25;8.02;;;2.70;;
22230;SDS011;11284;48.086;-1.652;2023-03-14T12:21:01;8.52;;;2.15;;
22230;SDS011;11284;48.086;-1.652;2023-03-14T12:23:34;10.45;;;1.98;;
22230;SDS011;11284;48.086;-1.652;2023-03-14T12:28:33;11.75;;;2.25;;
22230;SDS011;11284;48.086;-1.652;2023-03-14T12:31:35;7.07;;;1.77;;
22230;SDS011;11284;48.086;-1.652;2023-03-14T12:33:48;7.25;;;1.70;;
22230;SDS011;11284;48.086;-1.652;2023-03-14T12:36:31;7.57;;;1.80;;
22230;SDS011;11284;48.086;-1.652;2023-03-14T12:39:19;8.43;;;1.90;;
22230;SDS011;11284;48.086;-1.652;2023-03-14T12:42:00;11.55;;;2.10;;
22230;SDS011;11284;48.086;-1.652;2023-03-14T12:47:00;10.18;;;3.67;;
22230;SDS011;11284;48.086;-1.652;2023-03-14T12:49:32;9.88;;;2.03;;
22230;SDS011;11284;48.086;-1.652;2023-03-14T12:52:10;6.43;;;1.83;;
22230;SDS011;11284;48.086;-1.652;2023-03-14T12:54:58;8.52;;;1.83;;
22230;SDS011;11284;48.086;-1.652;2023-03-14T12:59:55;12.05;;;2.75;;
22230;SDS011;11284;48.086;-1.652;2023-03-14T13:04:49;8.20;;;2.28;;
22230;SDS011;11284;48.086;-1.652;2023-03-14T13:07:35;10.85;;;1.92;;
22230;SDS011;11284;48.086;-1.652;2023-03-14T13:15:13;7.07;;;1.83;;
22230;SDS011;11284;48.086;-1.652;2023-03-14T13:17:40;8.63;;;1.95;;
22230;SDS011;11284;48.086;-1.652;2023-03-14T13:20:12;7.82;;;1.65;;
22230;SDS011;11284;48.086;-1.652;2023-03-14T13:22:38;8.68;;;1.58;;
22230;SDS011;11284;48.086;-1.652;2023-03-14T13:25:05;10.52;;;1.80;;
22230;SDS011;11284;48.086;-1.652;2023-03-14T13:27:32;9.55;;;2.15;;
22230;SDS011;11284;48.086;-1.652;2023-03-14T13:29:59;7.65;;;2.10;;
22230;SDS011;11284;48.086;-1.652;2023-03-14T13:32:30;8.07;;;2.78;;
22230;SDS011;11284;48.086;-1.652;2023-03-14T13:34:56;7.57;;;2.10;;
22230;SDS011;11284;48.086;-1.652;2023-03-14T13:37:23;10.73;;;3.30;;
22230;SDS011;11284;48.086;-1.652;2023-03-14T13:39:50;8.73;;;2.53;;
22230;SDS011;11284;48.086;-1.652;2023-03-14T13:42:17;9.98;;;1.95;;
22230;SDS011;11284;48.086;-1.652;2023-03-14T13:44:43;10.25;;;1.90;;
22230;SDS011;11284;48.086;-1.652;2023-03-14T13:47:11;10.05;;;2.58;;
22230;SDS011;11284;48.086;-1.652;2023-03-14T13:49:39;11.40;;;2.90;;
22230;SDS011;11284;48.086;-1.652;2023-03-14T13:52:20;10.25;;;2.88;;
22230;SDS011;11284;48.086;-1.652;2023-03-14T13:54:47;9.25;;;3.15;;
22230;SDS011;11284;48.086;-1.652;2023-03-14T13:57:13;10.38;;;3.30;;
22230;SDS011;11284;48.086;-1.652;2023-03-14T13:59:39;10.95;;;3.38;;
22230;SDS011;11284;48.086;-1.652;2023-03-14T14:02:13;10.00;;;4.07;;
22230;SDS011;11284;48.086;-1.652;2023-03-14T14:04:39;13.02;;;2.92;;
22230;SDS011;11284;48.086;-1.652;2023-03-14T14:07:06;11.48;;;2.17;;
22230;SDS011;11284;48.086;-1.652;2023-03-14T14:09:40;10.38;;;2.28;;
22230;SDS011;11284;48.086;-1.652;2023-03-14T14:12:29;10.45;;;2.80;;
22230;SDS011;11284;48.086;-1.652;2023-03-14T14:15:15;8.50;;;2.83;;
22230;SDS011;11284;48.086;-1.652;2023-03-14T14:18:05;12.05;;;3.08;;
22230;SDS011;11284;48.086;-1.652;2023-03-14T14:20:40;11.45;;;2.30;;
22230;SDS011;11284;48.086;-1.652;2023-03-14T14:23:11;13.13;;;3.33;;
22230;SDS011;11284;48.086;-1.652;2023-03-14T14:25:37;8.23;;;2.13;;
22230;SDS011;11284;48.086;-1.652;2023-03-14T14:30:58;9.88;;;2.10;;
22230;SDS011;11284;48.086;-1.652;2023-03-14T14:33:25;10.57;;;4.13;;
22230;SDS011;11284;48.086;-1.652;2023-03-14T14:35:55;11.93;;;5.00;;
22230;SDS011;11284;48.086;-1.652;2023-03-14T14:38:22;14.02;;;6.30;;
22230;SDS011;11284;48.086;-1.652;2023-03-14T14:40:49;8.40;;;2.50;;
22230;SDS011;11284;48.086;-1.652;2023-03-14T14:43:26;10.48;;;3.15;;
22230;SDS011;11284;48.086;-1.652;2023-03-14T14:45:53;12.52;;;3.45;;
22230;SDS011;11284;48.086;-1.652;2023-03-14T14:48:22;7.70;;;1.83;;
22230;SDS011;11284;48.086;-1.652;2023-03-14T14:55:57;6.30;;;1.60;;
22230;SDS011;11284;48.086;-1.652;2023-03-14T14:58:26;7.43;;;1.60;;
22230;SDS011;11284;48.086;-1.652;2023-03-14T15:00:53;8.43;;;2.00;;
22230;SDS011;11284;48.086;-1.652;2023-03-14T15:03:20;7.75;;;1.55;;
22230;SDS011;11284;48.086;-1.652;2023-03-14T15:05:46;8.45;;;2.17;;
22230;SDS011;11284;48.086;-1.652;2023-03-14T15:08:12;6.57;;;1.52;;
22230;SDS011;11284;48.086;-1.652;2023-03-14T15:10:38;6.25;;;1.40;;
22230;SDS011;11284;48.086;-1.652;2023-03-14T15:13:04;6.03;;;1.77;;
22230;SDS011;11284;48.086;-1.652;2023-03-14T15:15:30;7.68;;;1.73;;
22230;SDS011;11284;48.086;-1.652;2023-03-14T15:17:57;7.85;;;2.05;;
22230;SDS011;11284;48.086;-1.652;2023-03-14T15:20:23;8.27;;;1.73;;
22230;SDS011;11284;48.086;-1.652;2023-03-14T15:22:49;10.00;;;2.85;;
22230;SDS011;11284;48.086;-1.652;2023-03-14T15:25:15;8.30;;;1.40;;
22230;SDS011;11284;48.086;-1.652;2023-03-14T15:27:41;4.75;;;1.38;;
22230;SDS011;11284;48.086;-1.652;2023-03-14T15:30:11;7.32;;;1.52;;
22230;SDS011;11284;48.086;-1.652;2023-03-14T15:32:37;6.32;;;2.00;;
22230;SDS011;11284;48.086;-1.652;2023-03-14T15:35:03;5.88;;;1.30;;
22230;SDS011;11284;48.086;-1.652;2023-03-14T15:37:29;6.90;;;1.08;;
22230;SDS011;11284;48.086;-1.652;2023-03-14T15:39:56;6.32;;;1.10;;